SWR5181 LFLX-LSZH
Flight info
| Callsign | SWR5181 |
|---|---|
| Flight time | 0h 54m |
| Altitude | 19000 |
| Route | GUSON R66 RISUN/N0370F180 G21 RLP/N0374F190 Y112 LUL G42 BLM |
| Aircraft | A333/H-SDE2E3FGHIJ4J5M1P2RWXYZ/LB2D1 |
Departure
| Time | 2026-05-04 17:23 |
|---|---|
| Airport | Châteauroux Déols airport (LFLX) |
Arrival
| Time | 2026-05-04 18:17 |
|---|---|
| Airport | Zürich Airport (LSZH) |
| Time | Latitude | Longitude | Altitude | Speed | Heading |
|---|---|---|---|---|---|
| 2026-05-04 17:04 | 46.86219 | 1.72457 | 526 ft | 0 kts | 307° |
| 2026-05-04 17:14 | 46.86205 | 1.72485 | 526 ft | 2 kts | 305° |
| 2026-05-04 17:14 | 46.86196 | 1.72504 | 526 ft | 2 kts | 302° |
| 2026-05-04 17:14 | 46.86182 | 1.72547 | 526 ft | 2 kts | 274° |
| 2026-05-04 17:15 | 46.86186 | 1.72570 | 526 ft | 2 kts | 220° |
| 2026-05-04 17:15 | 46.86191 | 1.72576 | 526 ft | 0 kts | 214° |
| 2026-05-04 17:17 | 46.86188 | 1.72573 | 526 ft | 0 kts | 214° |
| 2026-05-04 17:18 | 46.86171 | 1.72555 | 526 ft | 7 kts | 214° |
| 2026-05-04 17:18 | 46.86014 | 1.72611 | 527 ft | 17 kts | 126° |
| 2026-05-04 17:19 | 46.85801 | 1.72609 | 529 ft | 20 kts | 211° |
| 2026-05-04 17:19 | 46.85545 | 1.72366 | 530 ft | 25 kts | 210° |
| 2026-05-04 17:20 | 46.85223 | 1.72054 | 528 ft | 31 kts | 213° |
| 2026-05-04 17:20 | 46.84980 | 1.71866 | 531 ft | 5 kts | 232° |
| 2026-05-04 17:20 | 46.84989 | 1.71846 | 531 ft | 2 kts | 335° |
| 2026-05-04 17:21 | 46.85049 | 1.71894 | 530 ft | 10 kts | 31° |
| 2026-05-04 17:21 | 46.85208 | 1.72051 | 528 ft | 18 kts | 33° |
| 2026-05-04 17:22 | 46.85480 | 1.72306 | 530 ft | 85 kts | 33° |
| 2026-05-04 17:22 | 46.86187 | 1.72978 | 528 ft | 158 kts | 33° |
| 2026-05-04 17:23 | 46.89600 | 1.76240 | 3194 ft | 216 kts | 34° |
| 2026-05-04 17:23 | 46.90886 | 1.77466 | 3762 ft | 221 kts | 34° |
| 2026-05-04 17:23 | 46.93484 | 1.79964 | 3999 ft | 225 kts | 37° |
| 2026-05-04 17:24 | 46.94626 | 1.81541 | 4125 ft | 229 kts | 51° |
| 2026-05-04 17:24 | 46.95539 | 1.88232 | 5998 ft | 274 kts | 98° |
| 2026-05-04 17:25 | 46.95102 | 1.91898 | 7536 ft | 279 kts | 104° |
| 2026-05-04 17:25 | 46.94347 | 1.96596 | 9496 ft | 287 kts | 105° |
| 2026-05-04 17:26 | 46.93410 | 2.02548 | 10881 ft | 327 kts | 104° |
| 2026-05-04 17:26 | 46.92296 | 2.13300 | 12919 ft | 376 kts | 91° |
| 2026-05-04 17:27 | 46.92644 | 2.21072 | 14725 ft | 388 kts | 85° |
| 2026-05-04 17:27 | 46.93305 | 2.28985 | 16574 ft | 395 kts | 84° |
| 2026-05-04 17:28 | 46.94011 | 2.37019 | 17809 ft | 400 kts | 85° |
| 2026-05-04 17:29 | 46.95042 | 2.49606 | 17904 ft | 426 kts | 85° |
| 2026-05-04 17:29 | 46.96064 | 2.62564 | 17910 ft | 428 kts | 85° |
| 2026-05-04 17:30 | 46.97066 | 2.75495 | 17912 ft | 427 kts | 85° |
| 2026-05-04 17:31 | 46.97728 | 2.84144 | 17911 ft | 427 kts | 85° |
| 2026-05-04 17:31 | 46.98710 | 2.97132 | 17918 ft | 428 kts | 85° |
| 2026-05-04 17:32 | 46.99358 | 3.05797 | 17902 ft | 428 kts | 85° |
| 2026-05-04 17:33 | 47.00317 | 3.18809 | 17907 ft | 428 kts | 85° |
| 2026-05-04 17:33 | 47.00630 | 3.23096 | 17902 ft | 428 kts | 85° |
| 2026-05-04 17:34 | 47.01570 | 3.36121 | 17911 ft | 429 kts | 86° |
| 2026-05-04 17:34 | 47.01882 | 3.40478 | 17917 ft | 429 kts | 86° |
| 2026-05-04 17:35 | 47.02801 | 3.53490 | 17923 ft | 429 kts | 86° |
| 2026-05-04 17:35 | 47.03407 | 3.62190 | 17933 ft | 429 kts | 86° |
| 2026-05-04 17:35 | 47.03708 | 3.66542 | 17934 ft | 429 kts | 86° |
| 2026-05-04 17:36 | 47.04007 | 3.70893 | 17928 ft | 429 kts | 86° |
| 2026-05-04 17:36 | 47.04305 | 3.75253 | 17920 ft | 429 kts | 86° |
| 2026-05-04 17:36 | 47.04601 | 3.79606 | 17934 ft | 429 kts | 86° |
| 2026-05-04 17:36 | 47.04896 | 3.83957 | 17926 ft | 429 kts | 86° |
| 2026-05-04 17:37 | 47.05188 | 3.88309 | 17932 ft | 429 kts | 86° |
| 2026-05-04 17:37 | 47.05479 | 3.92671 | 17935 ft | 429 kts | 86° |
| 2026-05-04 17:37 | 47.05768 | 3.97018 | 17938 ft | 429 kts | 86° |
| 2026-05-04 17:37 | 47.06051 | 4.01323 | 17934 ft | 429 kts | 86° |
| 2026-05-04 17:38 | 47.06417 | 4.05665 | 17935 ft | 430 kts | 80° |
| 2026-05-04 17:38 | 47.07351 | 4.09846 | 17939 ft | 433 kts | 65° |
| 2026-05-04 17:38 | 47.09007 | 4.13528 | 17940 ft | 434 kts | 51° |
| 2026-05-04 17:38 | 47.11028 | 4.16812 | 17944 ft | 435 kts | 45° |
| 2026-05-04 17:39 | 47.15491 | 4.22860 | 17942 ft | 436 kts | 41° |
| 2026-05-04 17:39 | 47.17783 | 4.25792 | 17943 ft | 436 kts | 41° |
| 2026-05-04 17:39 | 47.20068 | 4.28726 | 17944 ft | 436 kts | 41° |
| 2026-05-04 17:40 | 47.22339 | 4.31683 | 17948 ft | 436 kts | 41° |
| 2026-05-04 17:40 | 47.24602 | 4.34669 | 17950 ft | 436 kts | 42° |
| 2026-05-04 17:40 | 47.26823 | 4.37634 | 17949 ft | 436 kts | 42° |
| 2026-05-04 17:40 | 47.29069 | 4.40651 | 17946 ft | 436 kts | 42° |
| 2026-05-04 17:41 | 47.31306 | 4.43670 | 17951 ft | 436 kts | 43° |
| 2026-05-04 17:41 | 47.33543 | 4.46695 | 17952 ft | 437 kts | 42° |
| 2026-05-04 17:41 | 47.35786 | 4.49732 | 17962 ft | 437 kts | 42° |
| 2026-05-04 17:41 | 47.38029 | 4.52770 | 17958 ft | 437 kts | 42° |
| 2026-05-04 17:42 | 47.40237 | 4.55764 | 17965 ft | 437 kts | 42° |
| 2026-05-04 17:42 | 47.42475 | 4.58799 | 17949 ft | 437 kts | 42° |
| 2026-05-04 17:42 | 47.44717 | 4.61845 | 17957 ft | 437 kts | 42° |
| 2026-05-04 17:42 | 47.46955 | 4.64886 | 17957 ft | 437 kts | 42° |
| 2026-05-04 17:43 | 47.49197 | 4.67937 | 17971 ft | 437 kts | 42° |
| 2026-05-04 17:43 | 47.51432 | 4.70982 | 17964 ft | 437 kts | 42° |
| 2026-05-04 17:43 | 47.53670 | 4.74036 | 17967 ft | 437 kts | 42° |
| 2026-05-04 17:43 | 47.55903 | 4.77086 | 17966 ft | 437 kts | 42° |
| 2026-05-04 17:44 | 47.58111 | 4.80102 | 17963 ft | 437 kts | 43° |
| 2026-05-04 17:44 | 47.60342 | 4.83152 | 17969 ft | 436 kts | 42° |
| 2026-05-04 17:44 | 47.62578 | 4.86211 | 17968 ft | 436 kts | 42° |
| 2026-05-04 17:44 | 47.64803 | 4.89258 | 17971 ft | 436 kts | 43° |
| 2026-05-04 17:45 | 47.67038 | 4.92322 | 17974 ft | 436 kts | 43° |
| 2026-05-04 17:45 | 47.69272 | 4.95389 | 17976 ft | 437 kts | 43° |
| 2026-05-04 17:45 | 47.71500 | 4.98452 | 17976 ft | 436 kts | 43° |
| 2026-05-04 17:45 | 47.73727 | 5.01518 | 17971 ft | 437 kts | 43° |
| 2026-05-04 17:46 | 47.75954 | 5.04587 | 17975 ft | 437 kts | 43° |
| 2026-05-04 17:46 | 47.78179 | 5.07658 | 17973 ft | 436 kts | 43° |
| 2026-05-04 17:46 | 47.80376 | 5.10694 | 17979 ft | 436 kts | 43° |
| 2026-05-04 17:46 | 47.82605 | 5.13777 | 17981 ft | 436 kts | 43° |
| 2026-05-04 17:47 | 47.84823 | 5.16849 | 17981 ft | 435 kts | 43° |
| 2026-05-04 17:47 | 47.86901 | 5.20069 | 17981 ft | 435 kts | 52° |
| 2026-05-04 17:47 | 47.88475 | 5.23971 | 17979 ft | 434 kts | 68° |
| 2026-05-04 17:47 | 47.89210 | 5.28233 | 17988 ft | 430 kts | 86° |
| 2026-05-04 17:48 | 47.89064 | 5.32650 | 17986 ft | 426 kts | 101° |
| 2026-05-04 17:48 | 47.88444 | 5.37012 | 17984 ft | 425 kts | 107° |
| 2026-05-04 17:48 | 47.87622 | 5.41185 | 17985 ft | 424 kts | 110° |
| 2026-05-04 17:48 | 47.86698 | 5.45355 | 17998 ft | 424 kts | 111° |
| 2026-05-04 17:49 | 47.85750 | 5.49522 | 17996 ft | 424 kts | 111° |
| 2026-05-04 17:49 | 47.84816 | 5.53683 | 17992 ft | 423 kts | 111° |
| 2026-05-04 17:49 | 47.83907 | 5.57846 | 18005 ft | 423 kts | 110° |
| 2026-05-04 17:49 | 47.83019 | 5.62017 | 18003 ft | 423 kts | 110° |
| 2026-05-04 17:50 | 47.82140 | 5.66213 | 18000 ft | 423 kts | 110° |
| 2026-05-04 17:50 | 47.81270 | 5.70401 | 17999 ft | 423 kts | 110° |
| 2026-05-04 17:50 | 47.80415 | 5.74528 | 18006 ft | 423 kts | 110° |
| 2026-05-04 17:50 | 47.79547 | 5.78716 | 18007 ft | 423 kts | 110° |
| 2026-05-04 17:51 | 47.78679 | 5.82892 | 18009 ft | 423 kts | 110° |
| 2026-05-04 17:51 | 47.77808 | 5.87067 | 18008 ft | 423 kts | 110° |
| 2026-05-04 17:51 | 47.76934 | 5.91243 | 17996 ft | 423 kts | 110° |
| 2026-05-04 17:51 | 47.76059 | 5.95411 | 18008 ft | 422 kts | 110° |
| 2026-05-04 17:52 | 47.75184 | 5.99574 | 18008 ft | 422 kts | 110° |
| 2026-05-04 17:52 | 47.74307 | 6.03734 | 18005 ft | 422 kts | 110° |
| 2026-05-04 17:52 | 47.73428 | 6.07893 | 18002 ft | 422 kts | 110° |
| 2026-05-04 17:52 | 47.72548 | 6.12050 | 18000 ft | 422 kts | 110° |
| 2026-05-04 17:53 | 47.71665 | 6.16213 | 17998 ft | 422 kts | 110° |
| 2026-05-04 17:53 | 47.70782 | 6.20367 | 17999 ft | 422 kts | 110° |
| 2026-05-04 17:53 | 47.69896 | 6.24527 | 17996 ft | 422 kts | 110° |
| 2026-05-04 17:53 | 47.69130 | 6.28721 | 17994 ft | 424 kts | 102° |
| 2026-05-04 17:54 | 47.68717 | 6.33062 | 17992 ft | 425 kts | 98° |
| 2026-05-04 17:54 | 47.68437 | 6.37367 | 17995 ft | 425 kts | 96° |
| 2026-05-04 17:54 | 47.68232 | 6.41743 | 17995 ft | 425 kts | 95° |
| 2026-05-04 17:54 | 47.68063 | 6.46120 | 17997 ft | 425 kts | 95° |
| 2026-05-04 17:55 | 47.67903 | 6.50498 | 18000 ft | 425 kts | 95° |
| 2026-05-04 17:55 | 47.67739 | 6.54876 | 18002 ft | 425 kts | 95° |
| 2026-05-04 17:55 | 47.67566 | 6.59274 | 18012 ft | 425 kts | 95° |
| 2026-05-04 17:55 | 47.67384 | 6.63661 | 18010 ft | 425 kts | 95° |
| 2026-05-04 17:56 | 47.67196 | 6.68037 | 18008 ft | 425 kts | 95° |
| 2026-05-04 17:56 | 47.67001 | 6.72412 | 18007 ft | 425 kts | 95° |
| 2026-05-04 17:56 | 47.66807 | 6.76740 | 18004 ft | 425 kts | 96° |
| 2026-05-04 17:56 | 47.66609 | 6.81113 | 18003 ft | 425 kts | 96° |
| 2026-05-04 17:57 | 47.66409 | 6.85502 | 18006 ft | 426 kts | 96° |
| 2026-05-04 17:57 | 47.66208 | 6.89883 | 18006 ft | 426 kts | 96° |
| 2026-05-04 17:57 | 47.66005 | 6.94263 | 18010 ft | 426 kts | 96° |
| 2026-05-04 17:57 | 47.65801 | 6.98644 | 18010 ft | 426 kts | 96° |
| 2026-05-04 17:58 | 47.65595 | 7.03022 | 18012 ft | 426 kts | 96° |
| 2026-05-04 17:58 | 47.65387 | 7.07410 | 18013 ft | 426 kts | 96° |
| 2026-05-04 17:58 | 47.65177 | 7.11787 | 18016 ft | 425 kts | 96° |
| 2026-05-04 17:58 | 47.64969 | 7.16115 | 18013 ft | 425 kts | 96° |
| 2026-05-04 17:59 | 47.64756 | 7.20495 | 18022 ft | 426 kts | 96° |
| 2026-05-04 17:59 | 47.64542 | 7.24869 | 18025 ft | 426 kts | 96° |
| 2026-05-04 17:59 | 47.64108 | 7.33632 | 18026 ft | 426 kts | 96° |
| 2026-05-04 18:00 | 47.63891 | 7.37973 | 17960 ft | 415 kts | 96° |
| 2026-05-04 18:00 | 47.63682 | 7.42162 | 17501 ft | 402 kts | 96° |
| 2026-05-04 18:00 | 47.63474 | 7.46252 | 16796 ft | 396 kts | 97° |
| 2026-05-04 18:00 | 47.63111 | 7.50258 | 16126 ft | 386 kts | 106° |
| 2026-05-04 18:01 | 47.62360 | 7.54031 | 15505 ft | 380 kts | 111° |
| 2026-05-04 18:01 | 47.61505 | 7.57717 | 14829 ft | 376 kts | 112° |
| 2026-05-04 18:01 | 47.60644 | 7.61345 | 14204 ft | 371 kts | 112° |
| 2026-05-04 18:02 | 47.58952 | 7.68496 | 12868 ft | 362 kts | 112° |
| 2026-05-04 18:02 | 47.58126 | 7.71995 | 12298 ft | 358 kts | 112° |
| 2026-05-04 18:02 | 47.57301 | 7.75490 | 11854 ft | 360 kts | 112° |
| 2026-05-04 18:02 | 47.56489 | 7.78932 | 11143 ft | 357 kts | 112° |
| 2026-05-04 18:03 | 47.55677 | 7.82375 | 10675 ft | 346 kts | 112° |
| 2026-05-04 18:03 | 47.54900 | 7.85676 | 10358 ft | 331 kts | 112° |
| 2026-05-04 18:03 | 47.54155 | 7.88830 | 10129 ft | 316 kts | 112° |
| 2026-05-04 18:03 | 47.53449 | 7.91825 | 9935 ft | 301 kts | 112° |
| 2026-05-04 18:04 | 47.52767 | 7.94699 | 9621 ft | 291 kts | 112° |
| 2026-05-04 18:04 | 47.52096 | 7.97511 | 9131 ft | 290 kts | 112° |
| 2026-05-04 18:04 | 47.50758 | 8.03118 | 8139 ft | 287 kts | 112° |
| 2026-05-04 18:05 | 47.50093 | 8.05908 | 7674 ft | 285 kts | 111° |
| 2026-05-04 18:05 | 47.49449 | 8.08617 | 7464 ft | 273 kts | 111° |
| 2026-05-04 18:05 | 47.48831 | 8.11214 | 7100 ft | 270 kts | 111° |
| 2026-05-04 18:05 | 47.48209 | 8.13821 | 6800 ft | 265 kts | 111° |
| 2026-05-04 18:06 | 47.47235 | 8.18823 | 6547 ft | 246 kts | 94° |
| 2026-05-04 18:06 | 47.47505 | 8.21287 | 6492 ft | 242 kts | 70° |
| 2026-05-04 18:06 | 47.48236 | 8.23489 | 6458 ft | 238 kts | 61° |
| 2026-05-04 18:07 | 47.49276 | 8.25404 | 6443 ft | 240 kts | 41° |
| 2026-05-04 18:07 | 47.50738 | 8.26561 | 6424 ft | 240 kts | 14° |
| 2026-05-04 18:07 | 47.52389 | 8.26661 | 6396 ft | 239 kts | 347° |
| 2026-05-04 18:07 | 47.53899 | 8.25689 | 6383 ft | 236 kts | 322° |
| 2026-05-04 18:08 | 47.55139 | 8.24145 | 6354 ft | 236 kts | 315° |
| 2026-05-04 18:08 | 47.56327 | 8.22471 | 6333 ft | 235 kts | 313° |
| 2026-05-04 18:08 | 47.57488 | 8.20825 | 6288 ft | 226 kts | 314° |
| 2026-05-04 18:08 | 47.58622 | 8.19229 | 6272 ft | 225 kts | 314° |
| 2026-05-04 18:09 | 47.60876 | 8.16057 | 6292 ft | 221 kts | 314° |
| 2026-05-04 18:09 | 47.63366 | 8.13404 | 6178 ft | 228 kts | 345° |
| 2026-05-04 18:10 | 47.64945 | 8.13140 | 6098 ft | 228 kts | 0° |
| 2026-05-04 18:10 | 47.66461 | 8.13658 | 6018 ft | 228 kts | 26° |
| 2026-05-04 18:10 | 47.67606 | 8.15239 | 6035 ft | 227 kts | 59° |
| 2026-05-04 18:10 | 47.68136 | 8.17418 | 5886 ft | 225 kts | 80° |
| 2026-05-04 18:11 | 47.68361 | 8.19735 | 5435 ft | 227 kts | 85° |
| 2026-05-04 18:11 | 47.68534 | 8.22065 | 5063 ft | 226 kts | 85° |
| 2026-05-04 18:11 | 47.68531 | 8.24382 | 4682 ft | 225 kts | 102° |
| 2026-05-04 18:11 | 47.67894 | 8.26450 | 4385 ft | 220 kts | 130° |
| 2026-05-04 18:12 | 47.66844 | 8.28096 | 4313 ft | 219 kts | 138° |
| 2026-05-04 18:12 | 47.65730 | 8.29630 | 4345 ft | 218 kts | 140° |
| 2026-05-04 18:12 | 47.64614 | 8.31141 | 4322 ft | 218 kts | 140° |
| 2026-05-04 18:12 | 47.63507 | 8.32643 | 4313 ft | 219 kts | 140° |
| 2026-05-04 18:13 | 47.62375 | 8.34188 | 4291 ft | 218 kts | 139° |
| 2026-05-04 18:13 | 47.61278 | 8.35690 | 4087 ft | 215 kts | 139° |
| 2026-05-04 18:13 | 47.59213 | 8.38533 | 4040 ft | 194 kts | 138° |
| 2026-05-04 18:14 | 47.58241 | 8.39868 | 4023 ft | 188 kts | 138° |
| 2026-05-04 18:14 | 47.57603 | 8.40744 | 4030 ft | 189 kts | 139° |
| 2026-05-04 18:14 | 47.56636 | 8.42065 | 4005 ft | 189 kts | 138° |
| 2026-05-04 18:15 | 47.54685 | 8.44748 | 3336 ft | 200 kts | 138° |
| 2026-05-04 18:15 | 47.52656 | 8.47535 | 2777 ft | 189 kts | 140° |
| 2026-05-04 18:15 | 47.51701 | 8.48785 | 2468 ft | 178 kts | 138° |
| 2026-05-04 18:16 | 47.50832 | 8.50030 | 2160 ft | 169 kts | 140° |
| 2026-05-04 18:16 | 47.50019 | 8.51188 | 1991 ft | 155 kts | 140° |
| 2026-05-04 18:16 | 47.49235 | 8.52202 | 1738 ft | 147 kts | 140° |
| 2026-05-04 18:17 | 47.47865 | 8.54074 | 1413 ft | 120 kts | 140° |
| 2026-05-04 18:17 | 47.47321 | 8.54799 | 1411 ft | 90 kts | 137° |
| 2026-05-04 18:17 | 47.46754 | 8.55574 | 1411 ft | 29 kts | 147° |
| 2026-05-04 18:18 | 47.46593 | 8.55679 | 1408 ft | 20 kts | 165° |
| 2026-05-04 18:18 | 47.46470 | 8.55721 | 1407 ft | 17 kts | 167° |
| 2026-05-04 18:18 | 47.46363 | 8.55789 | 1409 ft | 17 kts | 141° |
| 2026-05-04 18:18 | 47.46280 | 8.55899 | 1410 ft | 16 kts | 137° |
| 2026-05-04 18:19 | 47.46098 | 8.55990 | 1407 ft | 13 kts | 185° |
| 2026-05-04 18:19 | 47.46018 | 8.55978 | 1408 ft | 11 kts | 186° |
| 2026-05-04 18:19 | 47.45954 | 8.55963 | 1409 ft | 6 kts | 195° |
| 2026-05-04 18:20 | 47.45944 | 8.55957 | 1415 ft | 1 kts | 198° |
| 2026-05-04 18:20 | 47.45931 | 8.55950 | 1412 ft | 0 kts | 200° |
| 2026-05-04 18:21 | 47.45913 | 8.55941 | 1412 ft | 8 kts | 199° |
| 2026-05-04 18:21 | 47.45855 | 8.55907 | 1408 ft | 12 kts | 204° |
| 2026-05-04 18:21 | 47.45762 | 8.55876 | 1407 ft | 13 kts | 187° |
| 2026-05-04 18:21 | 47.45672 | 8.55855 | 1408 ft | 14 kts | 192° |
| 2026-05-04 18:22 | 47.45646 | 8.55763 | 1408 ft | 10 kts | 275° |
| 2026-05-04 18:22 | 47.45652 | 8.55655 | 1406 ft | 11 kts | 276° |
| 2026-05-04 18:22 | 47.45661 | 8.55533 | 1401 ft | 13 kts | 276° |
| 2026-05-04 18:22 | 47.45675 | 8.55382 | 1408 ft | 16 kts | 282° |
| 2026-05-04 18:23 | 47.45679 | 8.55256 | 1410 ft | 9 kts | 255° |
| 2026-05-04 18:23 | 47.45659 | 8.55218 | 1409 ft | 1 kts | 214° |
| 2026-05-04 18:23 | 47.45613 | 8.55225 | 1411 ft | 12 kts | 159° |
| 2026-05-04 18:23 | 47.45536 | 8.55276 | 1411 ft | 12 kts | 155° |
| 2026-05-04 18:24 | 47.45459 | 8.55329 | 1409 ft | 14 kts | 154° |
| 2026-05-04 18:24 | 47.45363 | 8.55395 | 1409 ft | 17 kts | 154° |
| 2026-05-04 18:24 | 47.45246 | 8.55475 | 1408 ft | 20 kts | 155° |
| 2026-05-04 18:24 | 47.45121 | 8.55560 | 1408 ft | 20 kts | 155° |
| 2026-05-04 18:25 | 47.45019 | 8.55633 | 1408 ft | 8 kts | 154° |
| 2026-05-04 18:25 | 47.44961 | 8.55712 | 1408 ft | 14 kts | 106° |
| 2026-05-04 18:25 | 47.44946 | 8.55869 | 1406 ft | 12 kts | 97° |
| 2026-05-04 18:25 | 47.44915 | 8.55945 | 1411 ft | 9 kts | 142° |
| 2026-05-04 18:26 | 47.44906 | 8.55954 | 1409 ft | 4 kts | 145° |
| 2026-05-04 18:26 | 47.44892 | 8.55969 | 1408 ft | 2 kts | 148° |
| 2026-05-04 18:26 | 47.44813 | 8.56023 | 1411 ft | 19 kts | 153° |
| 2026-05-04 18:26 | 47.44700 | 8.56101 | 1411 ft | 17 kts | 156° |
| 2026-05-04 18:27 | 47.44601 | 8.56167 | 1409 ft | 4 kts | 155° |
| 2026-05-04 18:27 | 47.44569 | 8.56189 | 1411 ft | 6 kts | 155° |
| 2026-05-04 18:27 | 47.44516 | 8.56233 | 1409 ft | 10 kts | 137° |
| 2026-05-04 18:27 | 47.44514 | 8.56322 | 1411 ft | 9 kts | 68° |
| 2026-05-04 18:28 | 47.44542 | 8.56421 | 1409 ft | 11 kts | 66° |
| 2026-05-04 18:28 | 47.44560 | 8.56526 | 1406 ft | 10 kts | 104° |
| 2026-05-04 18:28 | 47.44511 | 8.56580 | 1408 ft | 9 kts | 157° |
| 2026-05-04 18:28 | 47.44455 | 8.56615 | 1408 ft | 7 kts | 160° |
| 2026-05-04 18:29 | 47.44415 | 8.56604 | 1408 ft | 5 kts | 216° |
| 2026-05-04 18:29 | 47.44408 | 8.56590 | 1408 ft | 3 kts | 229° |
| 2026-05-04 18:29 | 47.44384 | 8.56532 | 1410 ft | 9 kts | 241° |
| 2026-05-04 18:29 | 47.44350 | 8.56440 | 1411 ft | 12 kts | 242° |
| 2026-05-04 18:30 | 47.44379 | 8.56322 | 1410 ft | 4 kts | 333° |
| 2026-05-04 18:30 | 47.44400 | 8.56306 | 1409 ft | 0 kts | 333° |
| 2026-05-04 18:30 | 47.44403 | 8.56304 | 1409 ft | 0 kts | 333° |